Time;durP1;ratioP1;P1;durP2;ratioP2;P2;SDS_P1;SDS_P2;PMS_P1;PMS_P2;Temp;Humidity;BMP_temperature;BMP_pressure;BME280_temperature;BME280_humidity;BME280_pressure;Samples;Min_cycle;Max_cycle;Signal;HPM_P1;HPM_P2
2022/01/15 20:36:53;;;;;;;5.35;2.20;;;;;;;-0.10;72.40;99600.45;1794069;79;22813;-56
2022/01/15 20:39:21;;;;;;;7.78;2.20;;;;;;;0.01;72.94;99612.52;1772759;80;21040;-57
2022/01/15 20:41:48;;;;;;;5.08;2.40;;;;;;;0.13;72.94;99610.80;1760352;80;22160;-57
2022/01/15 20:44:15;;;;;;;6.53;2.50;;;;;;;0.25;74.07;99601.30;1754635;80;21490;-57
2022/01/15 20:46:42;;;;;;;4.30;2.00;;;;;;;0.34;73.47;99613.78;1741263;81;20962;-56
2022/01/15 20:49:09;;;;;;;7.00;2.75;;;;;;;0.39;73.30;99611.17;1712417;82;21548;-56
2022/01/15 20:51:36;;;;;;;5.62;3.20;;;;;;;0.36;73.41;99592.64;1711110;83;21569;-57
2022/01/15 20:54:03;;;;;;;5.63;2.70;;;;;;;0.32;73.26;99596.52;1710230;82;21802;-56
2022/01/15 20:56:30;;;;;;;4.50;2.52;;;;;;;0.30;73.48;99605.60;1720516;81;21691;-56
2022/01/15 20:58:57;;;;;;;4.97;2.20;;;;;;;0.34;73.90;99619.36;1724995;81;21547;-57
2022/01/15 21:01:24;;;;;;;4.62;2.47;;;;;;;0.43;74.55;99610.73;1707865;82;21560;-56
2022/01/15 21:03:51;;;;;;;9.53;4.80;;;;;;;0.52;73.97;99617.19;1711704;83;21486;-56
2022/01/15 21:06:18;;;;;;;8.13;3.50;;;;;;;0.49;73.43;99623.23;1713639;83;22122;-56
2022/01/15 21:08:46;;;;;;;5.25;2.60;;;;;;;0.48;73.57;99635.73;1703279;83;21447;-56
2022/01/15 21:11:13;;;;;;;5.20;1.92;;;;;;;0.47;73.83;99640.49;1712056;83;21425;-58
2022/01/15 21:13:41;;;;;;;5.28;2.33;;;;;;;0.45;73.66;99636.16;1735073;81;21546;-56
2022/01/15 21:16:07;;;;;;;5.33;2.02;;;;;;;0.44;73.58;99634.45;1728150;81;21635;-57
2022/01/15 21:18:34;;;;;;;4.30;2.40;;;;;;;0.47;73.60;99638.31;1721703;81;21778;-56
2022/01/15 21:21:01;;;;;;;4.55;2.27;;;;;;;0.47;74.01;99635.73;1722565;82;21510;-56
2022/01/15 21:23:28;;;;;;;4.13;2.23;;;;;;;0.48;74.12;99624.53;1722792;82;21604;-56
2022/01/15 21:26:03;;;;;;;3.83;2.33;;;;;;;0.51;73.96;99623.20;1722427;82;21498;-56
2022/01/15 21:28:24;;;;;;;3.85;2.50;;;;;;;0.51;73.45;99629.67;1712526;82;21007;-56
2022/01/15 21:30:50;;;;;;;4.67;2.20;;;;;;;0.53;73.18;99635.30;1719015;82;21894;-56
2022/01/15 21:33:17;;;;;;;2.65;1.95;;;;;;;0.54;73.25;99634.85;1721956;81;21569;-56
2022/01/15 21:35:44;;;;;;;4.93;2.50;;;;;;;0.53;73.38;99635.73;1721616;81;21453;-56
2022/01/15 21:38:11;;;;;;;7.17;2.80;;;;;;;0.55;73.57;99639.18;1696552;83;21073;-57
2022/01/15 21:40:37;;;;;;;4.60;2.77;;;;;;;0.53;73.68;99641.77;1706900;83;21598;-56
2022/01/15 21:43:04;;;;;;;4.85;2.60;;;;;;;0.54;73.70;99651.23;1681730;83;22041;-57
2022/01/15 21:45:31;;;;;;;3.83;2.50;;;;;;;0.57;73.28;99649.09;1702968;83;21078;-57
2022/01/15 21:47:58;;;;;;;6.50;2.58;;;;;;;0.57;73.14;99664.61;1759600;80;21072;-56
2022/01/15 21:50:26;;;;;;;5.03;2.75;;;;;;;0.57;73.16;99655.12;1762392;80;20982;-56
2022/01/15 21:52:53;;;;;;;7.45;2.50;;;;;;;0.56;73.09;99668.91;1764159;80;21501;-56
2022/01/15 21:55:19;;;;;;;4.92;1.85;;;;;;;0.59;73.11;99670.64;1759785;80;21466;-56
2022/01/15 21:57:46;;;;;;;7.42;2.65;;;;;;;0.58;73.22;99676.67;1763193;80;21431;-56
2022/01/15 22:00:14;;;;;;;3.42;2.00;;;;;;;0.57;73.26;99686.17;1759887;80;21114;-58
2022/01/15 22:02:41;;;;;;;;;;;;;;;0.58;73.37;99689.61;1763634;80;20967;-56
2022/01/15 22:05:09;;;;;;;9.33;3.97;;;;;;;0.57;73.14;99683.58;1758695;80;20457;-58
2022/01/15 22:07:38;;;;;;;4.90;2.72;;;;;;;0.57;73.46;99686.61;1757742;80;21808;-56
2022/01/15 22:10:06;;;;;;;6.42;2.05;;;;;;;0.52;73.39;99684.01;1742519;80;21558;-55
2022/01/15 22:12:45;;;;;;;4.37;2.60;;;;;;;0.53;73.21;99674.55;1746385;80;21609;-56
2022/01/15 22:15:04;;;;;;;3.08;1.70;;;;;;;0.51;72.85;99678.83;1733962;80;21582;-56
2022/01/15 22:17:31;;;;;;;3.02;1.80;;;;;;;0.54;72.44;99659.44;1757279;80;21518;-57
2022/01/15 22:20:00;;;;;;;3.25;1.60;;;;;;;0.55;72.47;99658.59;1754979;79;21552;-56
2022/01/15 22:22:27;;;;;;;3.33;2.27;;;;;;;0.53;72.02;99662.91;1760294;80;21566;-56
2022/01/15 22:24:56;;;;;;;2.55;1.52;;;;;;;0.57;71.86;99671.09;1759235;80;21683;-55
2022/01/15 22:27:23;;;;;;;2.87;1.70;;;;;;;0.55;71.68;99659.88;1694069;83;21472;-56
2022/01/15 22:29:49;;;;;;;3.25;1.85;;;;;;;0.56;71.53;99659.84;1749233;80;21427;-56
2022/01/15 22:32:18;;;;;;;3.00;1.67;;;;;;;0.58;70.96;99663.73;1764580;80;21917;-57
2022/01/15 22:34:47;;;;;;;2.85;1.45;;;;;;;0.56;70.35;99665.47;1759995;80;21747;-56
2022/01/15 22:37:14;;;;;;;3.62;1.87;;;;;;;0.55;70.82;99664.61;1746218;80;21069;-56
2022/01/15 22:39:41;;;;;;;3.22;1.70;;;;;;;0.57;70.83;99671.09;1758609;80;21432;-57
2022/01/15 22:42:08;;;;;;;3.93;2.30;;;;;;;0.55;70.99;99663.32;1765304;79;21518;-55
2022/01/15 22:44:36;;;;;;;4.78;2.27;;;;;;;0.57;71.37;99671.94;1738485;80;21737;-56
2022/01/15 22:47:04;;;;;;;4.75;2.40;;;;;;;0.53;70.88;99675.84;1753599;80;21483;-57
2022/01/15 22:49:31;;;;;;;6.35;2.45;;;;;;;0.53;71.11;99679.72;1761565;80;21046;-56
2022/01/15 22:51:59;;;;;;;4.70;2.15;;;;;;;0.54;70.71;99690.48;1763747;80;21474;-57
2022/01/15 22:54:25;;;;;;;5.70;2.22;;;;;;;0.53;70.99;99690.92;1747881;80;21420;-56
2022/01/15 22:56:52;;;;;;;3.52;1.80;;;;;;;0.55;71.17;99698.69;1696117;84;21833;-56
2022/01/15 22:59:19;;;;;;;3.85;2.00;;;;;;;0.53;70.94;99701.71;1763948;80;21636;-56
2022/01/15 23:01:45;;;;;;;3.87;1.67;;;;;;;0.55;70.28;99699.98;1758923;80;21526;-56
2022/01/15 23:04:12;;;;;;;4.67;2.08;;;;;;;0.56;69.99;99697.81;1749026;80;21527;-56
2022/01/15 23:06:39;;;;;;;2.65;1.60;;;;;;;0.55;70.13;99699.55;1750386;80;21495;-56
2022/01/15 23:09:05;;;;;;;3.92;1.80;;;;;;;0.53;69.31;99703.86;1762635;80;21915;-56
2022/01/15 23:11:39;;;;;;;3.85;1.40;;;;;;;0.59;69.25;99715.93;1764058;80;21058;-57
2022/01/15 23:14:14;;;;;;;4.53;1.72;;;;;;;0.56;69.07;99724.53;1764677;80;21529;-56
2022/01/15 23:16:51;;;;;;;2.25;1.37;;;;;;;0.57;68.76;99725.42;1761158;80;21549;-56
2022/01/15 23:19:02;;;;;;;2.80;1.15;;;;;;;0.56;68.72;99718.06;1757072;80;21577;-56
2022/01/15 23:21:31;;;;;;;2.43;1.50;;;;;;;0.60;68.62;99722.81;1764303;80;22019;-57
2022/01/15 23:23:58;;;;;;;3.45;1.37;;;;;;;0.59;68.18;99726.28;1761408;80;21533;-56
2022/01/15 23:26:27;;;;;;;3.03;1.50;;;;;;;0.58;68.01;99725.83;1763239;80;21568;-55
2022/01/15 23:28:56;;;;;;;4.50;1.67;;;;;;;0.60;67.81;99725.40;1763697;80;21015;-56
2022/01/15 23:31:24;;;;;;;6.40;2.02;;;;;;;0.58;68.04;99733.19;1745784;80;21507;-55
2022/01/15 23:33:51;;;;;;;3.58;2.17;;;;;;;0.58;68.34;99743.54;1763357;80;22013;-56
2022/01/15 23:36:18;;;;;;;3.22;1.90;;;;;;;0.59;68.61;99739.22;1756558;80;21510;-56
2022/01/15 23:38:46;;;;;;;5.03;2.42;;;;;;;0.58;68.08;99743.95;1742016;80;21561;-56
2022/01/15 23:41:13;;;;;;;4.67;2.12;;;;;;;0.58;68.32;99754.30;1751764;80;21471;-57
2022/01/15 23:43:43;;;;;;;4.42;2.20;;;;;;;0.60;68.19;99755.59;1760106;80;20974;-56
2022/01/15 23:46:17;;;;;;;4.22;2.30;;;;;;;0.56;68.34;99754.30;1763588;80;21518;-55
2022/01/15 23:48:42;;;;;;;2.67;2.08;;;;;;;0.61;68.36;99739.22;1754040;80;21423;-56
2022/01/15 23:51:13;;;;;;;4.85;2.37;;;;;;;0.57;68.36;99752.59;1748695;80;21487;-56
2022/01/15 23:53:38;;;;;;;5.65;2.58;;;;;;;0.55;68.48;99765.52;1761599;80;21514;-56
2022/01/15 23:56:05;;;;;;;;;;;;;;;0.58;68.71;99760.77;1767280;80;21533;-56
2022/01/15 23:58:33;;;;;;;6.12;2.98;;;;;;;0.55;68.89;99760.34;1749172;80;20729;-56
